createdAt,value
2019-02-17T00:00:56.533Z,0.09
2019-02-17T00:03:24.493Z,0.02
2019-02-17T00:05:52.643Z,-0.01
2019-02-17T00:08:20.688Z,0.00
2019-02-17T00:10:48.669Z,-0.11
2019-02-17T00:13:16.757Z,-0.23
2019-02-17T00:15:44.648Z,-0.18
2019-02-17T00:18:12.585Z,-0.19
2019-02-17T00:20:40.244Z,-0.19
2019-02-17T00:23:08.111Z,-0.22
2019-02-17T00:25:37.075Z,-0.30
2019-02-17T00:28:05.180Z,-0.27
2019-02-17T00:30:33.050Z,-0.31
2019-02-17T00:33:01.112Z,-0.32
2019-02-17T00:35:29.115Z,-0.32
2019-02-17T00:37:56.959Z,-0.34
2019-02-17T00:40:25.013Z,-0.36
2019-02-17T00:42:53.599Z,-0.46
2019-02-17T00:45:21.606Z,-0.43
2019-02-17T00:47:49.786Z,-0.45
2019-02-17T00:50:17.707Z,-0.45
2019-02-17T00:52:45.603Z,-0.44
2019-02-17T00:55:13.605Z,-0.47
2019-02-17T00:57:41.570Z,-0.50
2019-02-17T01:00:10.090Z,-0.52
2019-02-17T01:02:39.142Z,-0.55
2019-02-17T01:05:07.079Z,-0.55
2019-02-17T01:07:34.969Z,-0.67
2019-02-17T01:10:03.024Z,-0.80
2019-02-17T01:12:31.025Z,-0.75
2019-02-17T01:14:58.858Z,-0.75
2019-02-17T01:17:26.961Z,-0.77
2019-02-17T01:19:54.798Z,-0.82
2019-02-17T01:22:22.694Z,-0.77
2019-02-17T01:24:50.831Z,-0.81
2019-02-17T01:27:18.756Z,-0.95
2019-02-17T01:29:46.875Z,-0.96
2019-02-17T01:32:14.652Z,-0.93
2019-02-17T01:34:42.564Z,-0.93
2019-02-17T01:37:10.535Z,-0.92
2019-02-17T01:39:38.536Z,-0.97
2019-02-17T01:42:06.420Z,-0.99
2019-02-17T01:44:34.448Z,-1.00
2019-02-17T01:47:02.482Z,-1.05
2019-02-17T01:49:30.468Z,-1.07
2019-02-17T01:51:58.564Z,-1.09
2019-02-17T01:54:26.620Z,-1.14
2019-02-17T01:56:54.732Z,-1.11
2019-02-17T01:59:30.445Z,-1.09
2019-02-17T02:01:52.587Z,-1.12
2019-02-17T02:04:20.534Z,-1.14
2019-02-17T02:06:48.558Z,-1.24
2019-02-17T02:09:16.485Z,-1.31
2019-02-17T02:11:44.752Z,-1.28
2019-02-17T02:14:12.828Z,-1.30
2019-02-17T02:16:41.099Z,-1.30
2019-02-17T02:19:09.058Z,-1.34
2019-02-17T02:21:37.121Z,-1.33
2019-02-17T02:24:05.208Z,-1.36
2019-02-17T02:26:33.320Z,-1.39
2019-02-17T02:29:01.464Z,-1.45
2019-02-17T02:31:29.720Z,-1.47
2019-02-17T02:33:58.739Z,-1.50
2019-02-17T02:36:26.724Z,-1.57
2019-02-17T02:38:54.660Z,-1.50
2019-02-17T02:41:33.855Z,-1.49
2019-02-17T02:43:52.977Z,-1.51
2019-02-17T02:46:21.066Z,-1.51
2019-02-17T02:48:49.098Z,-1.51
2019-02-17T02:51:17.213Z,-1.63
2019-02-17T02:53:45.146Z,-1.77
2019-02-17T02:56:13.097Z,-1.79
2019-02-17T02:58:41.108Z,-1.82
2019-02-17T03:01:10.332Z,-1.75
2019-02-17T03:03:38.255Z,-1.74
2019-02-17T03:06:28.528Z,-1.77
2019-02-17T03:08:56.771Z,-1.71
2019-02-17T03:11:24.628Z,-1.78
2019-02-17T03:13:55.860Z,-1.80
2019-02-17T03:16:23.854Z,-1.79
2019-02-17T03:18:52.020Z,-1.80
2019-02-17T03:21:19.883Z,-1.82
2019-02-17T03:23:47.797Z,-1.82
2019-02-17T03:26:15.628Z,-1.89
2019-02-17T03:28:43.495Z,-1.84
2019-02-17T03:31:11.460Z,-1.89
2019-02-17T03:33:39.337Z,-1.84
2019-02-17T03:36:07.299Z,-1.82
2019-02-17T03:38:35.539Z,-1.86
2019-02-17T03:41:03.313Z,-1.88
2019-02-17T03:43:31.390Z,-1.98
2019-02-17T03:45:59.266Z,-1.97
2019-02-17T03:48:27.310Z,-1.92
2019-02-17T03:50:55.174Z,-1.97
2019-02-17T03:53:24.252Z,-1.99
2019-02-17T03:55:52.363Z,-1.97
2019-02-17T03:58:20.409Z,-1.99
2019-02-17T04:00:49.672Z,-2.00
2019-02-17T04:03:17.532Z,-2.01
2019-02-17T04:05:45.716Z,-2.01
2019-02-17T04:08:13.677Z,-2.09
2019-02-17T04:10:41.810Z,-2.10
2019-02-17T04:13:09.877Z,-2.13
2019-02-17T04:15:37.964Z,-2.13
2019-02-17T04:18:06.280Z,-2.18
2019-02-17T04:20:33.991Z,-2.20
2019-02-17T04:23:02.116Z,-2.22
2019-02-17T04:25:31.245Z,-2.21
2019-02-17T04:28:00.701Z,-2.25
2019-02-17T04:30:29.799Z,-2.30
2019-02-17T04:32:57.960Z,-2.31
2019-02-17T04:35:25.991Z,-2.35
2019-02-17T04:37:55.642Z,-2.38
2019-02-17T04:40:23.798Z,-2.36
2019-02-17T04:42:51.583Z,-2.33
2019-02-17T04:45:19.691Z,-2.34
2019-02-17T04:47:47.625Z,-2.36
2019-02-17T04:50:15.562Z,-2.40
2019-02-17T04:52:43.361Z,-2.38
2019-02-17T04:55:11.514Z,-2.44
2019-02-17T04:57:39.504Z,-2.47
2019-02-17T05:00:08.100Z,-2.49
2019-02-17T05:02:35.645Z,-2.48
2019-02-17T05:05:03.805Z,-2.48
2019-02-17T05:07:31.992Z,-2.51
2019-02-17T05:10:00.058Z,-2.48
2019-02-17T05:12:27.975Z,-2.46
2019-02-17T05:14:55.947Z,-2.52
2019-02-17T05:17:24.046Z,-2.53
2019-02-17T05:19:51.768Z,-2.55
2019-02-17T05:22:19.787Z,-2.53
2019-02-17T05:24:47.746Z,-2.56
2019-02-17T05:27:15.987Z,-2.63
2019-02-17T05:29:43.918Z,-2.61
2019-02-17T05:32:12.017Z,-2.60
2019-02-17T05:34:40.028Z,-2.74
2019-02-17T05:37:08.109Z,-2.69
2019-02-17T05:39:36.155Z,-2.73
2019-02-17T05:42:04.230Z,-2.78
2019-02-17T05:44:32.357Z,-2.76
2019-02-17T05:47:00.444Z,-2.72
2019-02-17T05:49:28.379Z,-2.80
2019-02-17T05:51:56.389Z,-2.77
2019-02-17T05:54:24.446Z,-2.79
2019-02-17T05:56:52.340Z,-2.79
2019-02-17T05:59:20.243Z,-2.78
2019-02-17T06:01:48.279Z,-2.89
2019-02-17T06:04:16.184Z,-2.97
2019-02-17T06:06:44.241Z,-2.92
2019-02-17T06:09:12.108Z,-2.88
2019-02-17T06:11:40.185Z,-2.89
2019-02-17T06:14:08.275Z,-2.88
2019-02-17T06:16:36.453Z,-2.94
2019-02-17T06:19:04.373Z,-2.90
2019-02-17T06:21:32.340Z,-2.84
2019-02-17T06:24:00.304Z,-2.71
2019-02-17T06:26:28.339Z,-2.65
2019-02-17T06:28:57.867Z,-2.47
2019-02-17T06:31:26.931Z,-2.32
2019-02-17T06:33:54.997Z,-2.06
2019-02-17T06:36:23.263Z,-1.85
2019-02-17T06:38:51.396Z,-1.63
2019-02-17T06:41:19.600Z,-1.36
2019-02-17T06:43:47.768Z,-1.14
2019-02-17T06:46:19.291Z,-0.86
2019-02-17T06:48:47.233Z,-0.40
2019-02-17T06:51:15.401Z,-0.13
2019-02-17T06:53:43.459Z,0.17
2019-02-17T06:56:23.262Z,0.21
2019-02-17T06:58:51.404Z,0.37
2019-02-17T07:01:24.740Z,0.59
2019-02-17T07:03:49.298Z,0.78
2019-02-17T07:06:30.212Z,1.12
2019-02-17T07:08:58.191Z,1.55
2019-02-17T07:11:27.395Z,1.88
2019-02-17T07:13:55.313Z,2.20
2019-02-17T07:16:23.540Z,2.51
2019-02-17T07:18:51.417Z,2.74
2019-02-17T07:21:19.478Z,3.06
2019-02-17T07:23:47.319Z,3.51
2019-02-17T07:26:17.103Z,3.73
2019-02-17T07:28:45.320Z,3.65
2019-02-17T07:31:13.376Z,3.84
2019-02-17T07:33:41.278Z,3.73
2019-02-17T07:36:09.311Z,3.83
2019-02-17T07:38:37.208Z,4.23
2019-02-17T07:41:05.495Z,4.48
2019-02-17T07:43:35.237Z,4.97
2019-02-17T07:46:03.257Z,5.47
2019-02-17T07:48:31.225Z,5.76
2019-02-17T07:50:59.144Z,5.97
2019-02-17T07:53:27.538Z,6.20
2019-02-17T07:55:55.598Z,6.47
2019-02-17T07:58:23.664Z,6.78
2019-02-17T08:00:51.806Z,7.11
2019-02-17T08:03:19.793Z,7.41
2019-02-17T08:05:47.858Z,7.66
2019-02-17T08:08:16.241Z,7.73
2019-02-17T08:10:44.228Z,7.97
2019-02-17T08:13:12.376Z,7.79
2019-02-17T08:15:40.314Z,8.06
2019-02-17T08:18:08.321Z,8.36
2019-02-17T08:20:36.710Z,8.25
2019-02-17T08:23:04.794Z,8.86
2019-02-17T08:25:32.852Z,9.08
2019-02-17T08:28:01.022Z,8.92
2019-02-17T08:30:29.243Z,9.38
2019-02-17T08:32:57.073Z,9.45
2019-02-17T08:35:25.072Z,9.79
2019-02-17T08:37:53.079Z,9.84
2019-02-17T08:40:21.203Z,10.62
2019-02-17T08:42:49.399Z,10.66
2019-02-17T08:45:17.567Z,10.62
2019-02-17T08:47:45.587Z,10.89
2019-02-17T08:50:13.683Z,11.08
2019-02-17T08:52:41.628Z,11.38
2019-02-17T08:55:09.600Z,11.58
2019-02-17T08:57:38.173Z,11.66
2019-02-17T09:00:07.622Z,12.00
2019-02-17T09:02:35.815Z,12.09
2019-02-17T09:05:04.164Z,12.04
2019-02-17T09:07:32.209Z,12.31
2019-02-17T09:10:00.378Z,12.41
2019-02-17T09:12:28.412Z,12.31
2019-02-17T09:14:56.354Z,12.25
2019-02-17T09:17:25.474Z,12.36
2019-02-17T09:19:53.374Z,12.10
2019-02-17T09:22:21.471Z,12.16
2019-02-17T09:24:49.591Z,12.58
2019-02-17T09:27:17.629Z,13.15
2019-02-17T09:29:45.728Z,12.87
2019-02-17T09:32:16.282Z,12.87
2019-02-17T09:34:43.702Z,13.16
2019-02-17T09:37:12.143Z,13.39
2019-02-17T09:39:42.008Z,13.28
2019-02-17T09:42:10.074Z,13.06
2019-02-17T09:44:38.014Z,13.00
2019-02-17T09:47:06.050Z,13.48
2019-02-17T09:49:33.872Z,13.60
2019-02-17T09:52:01.837Z,13.34
2019-02-17T09:54:29.916Z,13.03
2019-02-17T09:56:57.970Z,13.18
2019-02-17T09:59:26.090Z,13.74
2019-02-17T10:01:54.354Z,14.56
2019-02-17T10:04:22.384Z,14.78
2019-02-17T10:06:50.271Z,14.61
2019-02-17T10:09:18.229Z,14.82
2019-02-17T10:11:46.163Z,15.03
2019-02-17T10:14:14.953Z,15.08
2019-02-17T10:16:43.006Z,15.44
2019-02-17T10:19:11.041Z,15.93
2019-02-17T10:21:39.085Z,15.76
2019-02-17T10:24:07.074Z,15.97
2019-02-17T10:26:35.089Z,16.32
2019-02-17T10:29:02.791Z,16.96
2019-02-17T10:31:30.430Z,16.95
2019-02-17T10:33:58.150Z,17.14
2019-02-17T10:36:25.851Z,17.14
2019-02-17T10:38:53.502Z,16.88
2019-02-17T10:41:21.062Z,16.79
2019-02-17T10:43:48.722Z,17.68
2019-02-17T10:46:16.257Z,17.50
2019-02-17T10:48:43.850Z,17.44
2019-02-17T10:51:11.836Z,18.27
2019-02-17T10:53:39.758Z,17.61
2019-02-17T10:56:07.738Z,17.43
2019-02-17T10:58:36.112Z,17.38
2019-02-17T11:01:04.384Z,17.62
2019-02-17T11:03:32.451Z,17.71
2019-02-17T11:06:00.624Z,18.22
2019-02-17T11:08:28.619Z,18.76
2019-02-17T11:10:56.522Z,18.08
2019-02-17T11:13:24.405Z,17.77
2019-02-17T11:15:52.231Z,18.42
2019-02-17T11:18:20.150Z,18.01
2019-02-17T11:20:48.099Z,17.78
2019-02-17T11:23:16.183Z,18.70
2019-02-17T11:25:43.959Z,18.42
2019-02-17T11:28:11.902Z,18.37
2019-02-17T11:30:39.848Z,18.04
2019-02-17T11:33:07.878Z,18.71
2019-02-17T11:35:35.507Z,19.00
2019-02-17T11:38:03.069Z,19.43
2019-02-17T11:40:30.800Z,19.24
2019-02-17T11:42:59.929Z,19.36
2019-02-17T11:45:27.837Z,20.27
2019-02-17T11:47:55.443Z,19.98
2019-02-17T11:50:23.104Z,19.41
2019-02-17T11:52:51.089Z,19.96
2019-02-17T11:55:19.463Z,20.14
2019-02-17T11:57:47.354Z,20.50
2019-02-17T12:00:17.035Z,20.17
2019-02-17T12:02:45.330Z,20.31
2019-02-17T12:05:13.384Z,20.02
2019-02-17T12:07:41.258Z,20.04
2019-02-17T12:10:09.939Z,20.54
2019-02-17T12:12:37.826Z,20.72
2019-02-17T12:15:06.386Z,20.04
2019-02-17T12:17:35.453Z,20.04
2019-02-17T12:20:35.297Z,20.02
2019-02-17T12:23:07.721Z,20.01
2019-02-17T12:25:58.142Z,20.61
2019-02-17T12:28:48.469Z,20.00
2019-02-17T12:31:23.790Z,20.84
2019-02-17T12:33:51.658Z,20.75
2019-02-17T12:36:20.237Z,20.54
2019-02-17T12:38:48.403Z,21.13
2019-02-17T12:41:16.945Z,21.01
2019-02-17T12:43:45.290Z,21.01
2019-02-17T12:46:13.347Z,20.86
2019-02-17T12:48:41.200Z,21.42
2019-02-17T12:51:09.525Z,21.42
2019-02-17T12:53:37.288Z,21.47
2019-02-17T12:56:06.014Z,21.60
2019-02-17T12:58:33.581Z,21.20
2019-02-17T13:01:01.233Z,21.10
2019-02-17T13:03:28.980Z,20.75
2019-02-17T13:05:56.565Z,20.75
2019-02-17T13:08:24.118Z,20.59
2019-02-17T13:10:51.714Z,20.59
2019-02-17T13:13:19.339Z,20.85
2019-02-17T13:15:46.908Z,21.11
2019-02-17T13:18:14.504Z,21.60
2019-02-17T13:20:42.127Z,21.21
2019-02-17T13:23:09.660Z,21.34
2019-02-17T13:25:38.301Z,21.48
2019-02-17T13:28:06.032Z,21.48
2019-02-17T13:30:33.716Z,21.04
2019-02-17T13:33:01.774Z,21.04
2019-02-17T13:35:29.730Z,20.75
2019-02-17T13:37:57.538Z,20.82
2019-02-17T13:40:25.566Z,20.82
2019-02-17T13:42:53.452Z,21.69
2019-02-17T13:45:21.632Z,21.69
2019-02-17T13:47:49.609Z,21.94
2019-02-17T13:50:17.579Z,21.94
2019-02-17T13:52:45.583Z,21.78
2019-02-17T13:55:13.479Z,21.68
2019-02-17T13:57:41.718Z,22.12
2019-02-17T14:00:11.893Z,22.12
2019-02-17T14:02:40.008Z,22.31
2019-02-17T14:05:07.867Z,22.01
2019-02-17T14:07:36.038Z,22.32
2019-02-17T14:10:06.779Z,22.37
2019-02-17T14:12:34.765Z,22.51
2019-02-17T14:15:02.901Z,22.31
2019-02-17T14:17:31.187Z,22.67
2019-02-17T14:19:59.272Z,21.99
2019-02-17T14:22:27.266Z,22.37
2019-02-17T14:24:55.212Z,21.37
2019-02-17T14:27:23.507Z,21.35
2019-02-17T14:29:51.355Z,21.78
2019-02-17T14:32:19.504Z,21.06
2019-02-17T14:34:47.360Z,21.60
2019-02-17T14:37:15.488Z,21.11
2019-02-17T14:39:43.361Z,21.30
2019-02-17T14:42:11.411Z,20.96
2019-02-17T14:44:39.205Z,20.96
2019-02-17T14:47:07.447Z,20.64
2019-02-17T14:49:35.242Z,20.50
2019-02-17T14:52:03.320Z,20.83
2019-02-17T14:54:31.274Z,20.69
2019-02-17T14:56:59.162Z,20.05
2019-02-17T14:59:27.930Z,20.16
2019-02-17T15:01:56.053Z,20.16
2019-02-17T15:04:24.036Z,19.40
2019-02-17T15:06:52.169Z,19.72
2019-02-17T15:09:20.195Z,19.81
2019-02-17T15:11:48.422Z,19.35
2019-02-17T15:14:16.353Z,19.16
2019-02-17T15:16:44.418Z,18.89
2019-02-17T15:19:12.355Z,18.51
2019-02-17T15:21:40.356Z,18.32
2019-02-17T15:24:08.447Z,17.88
2019-02-17T15:26:36.578Z,17.59
2019-02-17T15:29:04.476Z,17.37
2019-02-17T15:31:32.362Z,17.10
2019-02-17T15:34:00.491Z,16.95
2019-02-17T15:36:28.543Z,16.82
2019-02-17T15:38:56.624Z,16.62
2019-02-17T15:41:24.697Z,16.49
2019-02-17T15:43:52.740Z,16.51
2019-02-17T15:46:20.856Z,16.37
2019-02-17T15:48:48.744Z,16.08
2019-02-17T15:51:16.684Z,15.81
2019-02-17T15:53:44.608Z,15.28
2019-02-17T15:56:12.719Z,14.81
2019-02-17T15:58:40.756Z,14.53
2019-02-17T16:01:08.758Z,14.36
2019-02-17T16:03:36.906Z,14.16
2019-02-17T16:06:04.887Z,13.89
2019-02-17T16:08:33.160Z,13.64
2019-02-17T16:11:01.248Z,13.45
2019-02-17T16:13:29.319Z,13.19
2019-02-17T16:15:57.761Z,12.85
2019-02-17T16:18:25.788Z,12.69
2019-02-17T16:20:53.814Z,12.37
2019-02-17T16:23:22.318Z,12.29
2019-02-17T16:25:50.475Z,12.14
2019-02-17T16:28:18.502Z,11.95
2019-02-17T16:30:46.667Z,11.73
2019-02-17T16:33:17.460Z,11.55
2019-02-17T16:35:45.375Z,11.24
2019-02-17T16:38:14.411Z,11.07
2019-02-17T16:40:42.474Z,10.87
2019-02-17T16:43:10.479Z,10.48
2019-02-17T16:45:38.184Z,10.42
2019-02-17T16:48:06.112Z,10.25
2019-02-17T16:50:34.062Z,10.22
2019-02-17T16:53:01.720Z,9.98
2019-02-17T16:55:30.795Z,9.88
2019-02-17T16:57:58.377Z,9.59
2019-02-17T17:00:26.619Z,9.45
2019-02-17T17:02:54.487Z,9.32
2019-02-17T17:05:22.763Z,9.21
2019-02-17T17:07:50.631Z,9.04
2019-02-17T17:10:18.703Z,8.91
2019-02-17T17:12:46.322Z,8.71
2019-02-17T17:15:14.359Z,8.61
2019-02-17T17:17:42.142Z,8.52
2019-02-17T17:20:09.888Z,8.38
2019-02-17T17:22:37.501Z,8.27
2019-02-17T17:25:05.736Z,8.09
2019-02-17T17:27:33.404Z,8.09
2019-02-17T17:30:01.102Z,7.85
2019-02-17T17:32:28.690Z,7.83
2019-02-17T17:34:58.928Z,7.72
2019-02-17T17:37:25.990Z,7.65
2019-02-17T17:39:53.704Z,7.57
2019-02-17T17:42:22.461Z,7.49
2019-02-17T17:44:50.136Z,7.36
2019-02-17T17:47:17.744Z,7.16
2019-02-17T17:49:45.413Z,6.98
2019-02-17T17:52:12.953Z,6.99
2019-02-17T17:54:40.664Z,6.97
2019-02-17T17:57:08.279Z,6.86
2019-02-17T17:59:36.082Z,6.73
2019-02-17T18:02:03.718Z,6.65
2019-02-17T18:04:31.489Z,6.62
2019-02-17T18:06:59.068Z,6.55
2019-02-17T18:09:26.783Z,6.49
2019-02-17T18:11:54.349Z,6.41
2019-02-17T18:14:22.135Z,6.36
2019-02-17T18:16:50.249Z,6.32
2019-02-17T18:19:18.514Z,6.22
2019-02-17T18:21:46.589Z,6.12
2019-02-17T18:24:14.523Z,5.98
2019-02-17T18:26:43.595Z,5.89
2019-02-17T18:29:11.565Z,5.86
2019-02-17T18:31:40.302Z,5.82
2019-02-17T18:34:10.385Z,5.78
2019-02-17T18:36:38.561Z,5.74
2019-02-17T18:39:06.367Z,5.70
2019-02-17T18:41:34.699Z,5.53
2019-02-17T18:44:02.498Z,5.46
2019-02-17T18:46:30.398Z,5.49
2019-02-17T18:48:58.471Z,5.44
2019-02-17T18:51:26.725Z,5.34
2019-02-17T18:53:54.521Z,5.32
2019-02-17T18:56:22.326Z,5.25
2019-02-17T18:58:50.253Z,5.17
2019-02-17T19:01:18.315Z,5.10
2019-02-17T19:03:46.457Z,5.05
2019-02-17T19:06:14.561Z,4.98
2019-02-17T19:08:42.566Z,4.91
2019-02-17T19:11:10.685Z,4.90
2019-02-17T19:13:38.456Z,4.81
2019-02-17T19:16:06.544Z,4.82
2019-02-17T19:18:34.509Z,4.76
2019-02-17T19:21:02.563Z,4.71
2019-02-17T19:23:30.553Z,4.64
2019-02-17T19:25:58.673Z,4.53
2019-02-17T19:28:26.450Z,4.42
2019-02-17T19:30:54.464Z,4.36
2019-02-17T19:33:22.394Z,4.33
2019-02-17T19:35:50.611Z,4.29
2019-02-17T19:38:21.696Z,4.22
2019-02-17T19:40:52.206Z,4.19
2019-02-17T19:43:20.127Z,4.13
2019-02-17T19:45:48.669Z,4.10
2019-02-17T19:48:16.800Z,4.08
2019-02-17T19:50:45.113Z,4.02
2019-02-17T19:53:13.191Z,3.99
2019-02-17T19:55:41.062Z,3.95
2019-02-17T19:58:08.605Z,3.87
2019-02-17T20:00:36.840Z,3.82
2019-02-17T20:03:33.282Z,3.81
2019-02-17T20:06:02.291Z,3.79
2019-02-17T20:08:31.355Z,3.74
2019-02-17T20:10:59.297Z,3.73
2019-02-17T20:13:27.307Z,3.69
2019-02-17T20:15:56.199Z,3.64
2019-02-17T20:18:24.275Z,3.59
2019-02-17T20:20:52.399Z,3.53
2019-02-17T20:23:20.593Z,3.53
2019-02-17T20:25:48.712Z,3.51
2019-02-17T20:28:16.862Z,3.46
2019-02-17T20:30:44.881Z,3.43
2019-02-17T20:33:12.763Z,3.34
2019-02-17T20:35:40.834Z,3.25
2019-02-17T20:38:08.728Z,3.15
2019-02-17T20:40:36.796Z,3.09
2019-02-17T20:43:04.927Z,3.03
2019-02-17T20:45:33.039Z,2.99
2019-02-17T20:48:01.048Z,3.00
2019-02-17T20:50:29.009Z,3.01
2019-02-17T20:52:57.101Z,3.00
2019-02-17T20:55:25.341Z,2.97
2019-02-17T20:57:54.983Z,2.93
2019-02-17T21:00:25.067Z,2.89
2019-02-17T21:02:53.990Z,2.77
2019-02-17T21:05:22.251Z,2.80
2019-02-17T21:07:50.229Z,2.76
2019-02-17T21:10:18.114Z,2.68
2019-02-17T21:12:46.199Z,2.59
2019-02-17T21:15:15.868Z,2.56
2019-02-17T21:17:43.691Z,2.51
2019-02-17T21:20:13.277Z,2.49
2019-02-17T21:22:42.371Z,2.48
2019-02-17T21:25:10.342Z,2.48
2019-02-17T21:27:38.854Z,2.44
2019-02-17T21:30:06.949Z,2.39
2019-02-17T21:32:36.733Z,2.29
2019-02-17T21:35:06.204Z,2.29
2019-02-17T21:37:34.325Z,2.25
2019-02-17T21:40:02.179Z,2.20
2019-02-17T21:42:31.295Z,2.15
2019-02-17T21:44:59.409Z,2.08
2019-02-17T21:47:27.782Z,2.09
2019-02-17T21:49:55.594Z,2.01
2019-02-17T21:52:23.783Z,1.99
2019-02-17T21:54:51.781Z,1.98
2019-02-17T21:57:19.894Z,1.95
2019-02-17T21:59:47.999Z,1.91
2019-02-17T22:02:16.949Z,1.90
2019-02-17T22:04:45.016Z,1.87
2019-02-17T22:07:13.217Z,1.83
2019-02-17T22:09:41.081Z,1.79
2019-02-17T22:12:09.047Z,1.78
2019-02-17T22:14:36.924Z,1.73
2019-02-17T22:17:05.089Z,1.58
2019-02-17T22:19:33.286Z,1.62
2019-02-17T22:22:01.128Z,1.59
2019-02-17T22:24:29.017Z,1.55
2019-02-17T22:26:57.065Z,1.55
2019-02-17T22:29:25.015Z,1.51
2019-02-17T22:31:52.906Z,1.51
2019-02-17T22:34:21.084Z,1.44
2019-02-17T22:36:49.145Z,1.41
2019-02-17T22:39:17.184Z,1.35
2019-02-17T22:41:45.083Z,1.27
2019-02-17T22:44:12.893Z,1.30
2019-02-17T22:46:40.930Z,1.30
2019-02-17T22:49:08.872Z,1.28
2019-02-17T22:51:36.864Z,1.25
2019-02-17T22:54:04.820Z,1.22
2019-02-17T22:56:33.656Z,1.22
2019-02-17T22:59:02.066Z,1.15
2019-02-17T23:01:32.167Z,1.09
2019-02-17T23:04:00.326Z,1.05
2019-02-17T23:06:28.431Z,1.03
2019-02-17T23:08:56.455Z,1.03
2019-02-17T23:11:24.549Z,1.04
2019-02-17T23:13:52.530Z,1.01
2019-02-17T23:16:20.596Z,1.02
2019-02-17T23:18:48.565Z,1.01
2019-02-17T23:21:16.742Z,0.97
2019-02-17T23:23:44.717Z,0.94
2019-02-17T23:26:12.659Z,0.92
2019-02-17T23:28:40.836Z,0.86
2019-02-17T23:31:08.786Z,0.81
2019-02-17T23:33:36.862Z,0.82
2019-02-17T23:36:04.793Z,0.79
2019-02-17T23:38:32.793Z,0.73
2019-02-17T23:41:00.652Z,0.75
2019-02-17T23:43:28.643Z,0.74
2019-02-17T23:45:56.815Z,0.73
2019-02-17T23:48:24.680Z,0.66
2019-02-17T23:50:52.662Z,0.64
2019-02-17T23:53:20.645Z,0.62
2019-02-17T23:55:48.624Z,0.58
2019-02-17T23:58:16.713Z,0.57
